EDT,Max TemperatureF,Mean TemperatureF,Min TemperatureF,Max Dew PointF,MeanDew PointF,Min DewpointF,Max Humidity, Mean Humidity, Min Humidity, Max Sea Level PressureIn, Mean Sea Level PressureIn, Min Sea Level PressureIn, Max VisibilityMiles, Mean VisibilityMiles, Min VisibilityMiles, Max Wind SpeedMPH, Mean Wind SpeedMPH, Max Gust SpeedMPH,PrecipitationIn, CloudCover, Events, WindDirDegrees
2013-4-1,35,32,28,19,14,10,56,49,41,30.13,30.04,29.84,10,10,7,25,14,32,T,6,Snow,311
2013-4-2,38,30,21,20,15,13,69,52,35,30.29,30.22,30.13,10,10,10,23,10,28,0.00,2,,301
2013-4-3,42,32,21,21,15,10,71,52,32,30.48,30.39,30.29,10,10,10,17,6,23,0.00,0,,301
2013-4-4,49,37,24,27,21,17,75,53,31,30.34,30.14,29.97,10,10,10,22,10,28,T,1,,196
2013-4-5,45,38,31,28,22,15,82,58,33,30.23,30.16,29.99,10,10,7,18,9,23,0.00,1,,342
2013-4-6,59,48,36,43,24,15,61,46,30,30.21,29.96,29.62,10,10,9,26,14,37,0.04,7,Rain,128
2013-4-7,53,43,33,43,34,28,86,70,53,30.03,29.82,29.56,10,10,6,31,11,41,0.07,6,Rain,267
2013-4-8,52,43,33,48,39,28,93,82,70,30.01,29.80,29.62,10,4,0,23,11,32,0.61,7,Fog-Rain,200
2013-4-9,47,43,38,43,40,36,93,88,83,30.05,29.98,29.87,10,4,0,16,9,22,1.02,8,Fog-Rain-Thunderstorm,63
2013-4-10,45,42,39,40,36,30,85,78,70,30.02,29.96,29.84,10,8,2,25,15,32,0.59,8,Rain-Thunderstorm,61
2013-4-11,39,38,36,34,32,28,89,83,76,29.97,29.79,29.63,10,6,2,35,19,45,0.90,8,Rain,84
2013-4-12,40,38,35,36,34,30,92,89,85,29.78,29.63,29.56,10,7,1,21,10,26,0.14,8,Rain,192
2013-4-13,42,39,35,33,29,25,92,73,54,29.99,29.85,29.78,10,9,4,23,13,31,0.02,8,Rain-Snow,260
2013-4-14,49,40,30,37,32,27,92,77,61,30.09,29.98,29.80,10,8,1,26,11,32,0.07,5,Rain-Snow,103
2013-4-15,61,53,45,49,45,35,93,77,61,29.96,29.84,29.75,10,8,2,25,12,36,0.52,7,Rain,201
2013-4-16,49,44,38,43,34,29,92,71,50,30.29,30.11,29.95,10,9,4,18,9,24,0.15,3,Rain,301
2013-4-17,51,45,39,41,36,29,89,68,46,30.35,30.17,29.94,10,8,2,26,12,37,0.69,6,Rain-Thunderstorm,70
2013-4-18,64,54,44,57,49,41,96,91,86,29.94,29.61,29.43,10,4,0,32,11,45,2.02,8,Fog-Rain-Thunderstorm,141
2013-4-19,44,38,32,43,30,24,83,71,59,29.80,29.51,29.41,10,9,2,33,20,41,0.01,8,Rain-Snow,242
2013-4-20,39,33,27,21,17,10,63,48,32,30.47,30.16,29.82,10,9,2,23,11,33,T,6,Snow,315
2013-4-21,53,38,23,28,20,16,75,52,28,30.61,30.50,30.40,10,10,10,23,9,26,0.00,2,,134
2013-4-22,63,51,38,32,29,27,70,49,27,30.39,30.26,30.11,10,10,10,16,9,24,0.00,0,,167
2013-4-23,60,49,37,45,38,29,92,65,38,30.10,29.94,29.87,10,7,2,20,10,28,0.38,7,Rain,313
2013-4-24,45,40,35,34,28,24,82,64,45,30.09,29.98,29.92,10,10,8,21,12,25,T,5,Snow,317
2013-4-25,49,44,39,36,32,30,79,65,50,30.33,30.15,30.01,10,10,10,23,13,32,0.02,4,Rain,231
2013-4-26,64,50,36,40,32,26,76,53,29,30.40,30.33,30.26,10,10,10,26,14,33,0.00,1,,189
2013-4-27,66,57,47,43,40,38,71,55,39,30.29,30.22,30.08,10,10,10,18,7,24,0.00,0,,217
2013-4-28,67,57,46,48,43,37,83,67,51,30.06,29.91,29.83,10,10,10,10,4,14,0.00,7,,91
2013-4-29,67,55,43,54,47,41,93,75,56,29.93,29.88,29.84,10,5,0,16,6,21,0.01,4,Fog-Rain,176
2013-4-30,81,69,57,58,54,51,80,58,36,29.94,29.86,29.82,10,10,8,25,13,33,0.17,3,Rain-Thunderstorm,151